createdAt,value
2022-09-21T00:01:21.592Z,99.90
2022-09-21T00:03:52.317Z,99.90
2022-09-21T00:06:21.260Z,99.90
2022-09-21T00:08:49.280Z,99.90
2022-09-21T00:11:19.402Z,99.90
2022-09-21T00:13:47.794Z,99.90
2022-09-21T00:16:17.096Z,99.90
2022-09-21T00:18:44.032Z,99.90
2022-09-21T00:21:14.249Z,99.90
2022-09-21T00:23:42.105Z,99.90
2022-09-21T00:26:12.455Z,99.90
2022-09-21T00:28:40.681Z,99.90
2022-09-21T00:31:13.339Z,99.90
2022-09-21T00:33:41.415Z,99.90
2022-09-21T00:36:10.988Z,99.90
2022-09-21T00:38:38.347Z,99.90
2022-09-21T00:41:07.575Z,99.90
2022-09-21T00:43:36.328Z,99.90
2022-09-21T00:46:18.843Z,99.90
2022-09-21T00:48:47.051Z,99.90
2022-09-21T00:51:14.802Z,99.90
2022-09-21T00:53:41.978Z,99.90
2022-09-21T00:56:11.280Z,99.90
2022-09-21T00:58:44.954Z,99.90
2022-09-21T01:01:15.487Z,99.90
2022-09-21T01:03:45.851Z,99.90
2022-09-21T01:06:14.815Z,99.90
2022-09-21T01:08:42.930Z,99.90
2022-09-21T01:11:44.307Z,99.90
2022-09-21T01:14:34.957Z,99.90
2022-09-21T01:17:25.535Z,99.90
2022-09-21T01:20:13.187Z,99.90
2022-09-21T01:23:13.905Z,99.90
2022-09-21T01:26:04.250Z,99.90
2022-09-21T01:28:55.980Z,99.90
2022-09-21T01:31:28.660Z,99.90
2022-09-21T01:34:01.743Z,99.90
2022-09-21T01:36:34.254Z,99.90
2022-09-21T01:39:13.015Z,99.90
2022-09-21T01:41:42.820Z,99.90
2022-09-21T01:44:15.459Z,99.90
2022-09-21T01:46:42.618Z,99.90
2022-09-21T01:49:21.683Z,99.90
2022-09-21T01:52:00.732Z,99.90
2022-09-21T01:54:52.918Z,99.90
2022-09-21T01:57:37.356Z,99.90
2022-09-21T02:00:07.274Z,99.90
2022-09-21T02:02:53.039Z,99.90
2022-09-21T02:05:23.647Z,99.90
2022-09-21T02:07:52.505Z,99.90
2022-09-21T02:10:35.030Z,99.90
2022-09-21T02:13:05.807Z,99.90
2022-09-21T02:15:59.190Z,99.90
2022-09-21T02:18:44.123Z,99.90
2022-09-21T02:21:25.629Z,99.90
2022-09-21T02:24:13.702Z,99.90
2022-09-21T02:26:50.615Z,99.90
2022-09-21T02:29:25.191Z,99.90
2022-09-21T02:31:55.537Z,99.90
2022-09-21T02:34:33.479Z,99.90
2022-09-21T02:37:11.045Z,99.90
2022-09-21T02:39:58.404Z,99.90
2022-09-21T02:42:31.006Z,99.90
2022-09-21T02:45:11.099Z,99.90
2022-09-21T02:47:59.355Z,99.90
2022-09-21T02:50:50.306Z,99.90
2022-09-21T02:53:23.956Z,99.90
2022-09-21T02:55:56.186Z,99.90
2022-09-21T02:58:26.718Z,99.90
2022-09-21T03:00:56.622Z,99.90
2022-09-21T03:03:24.940Z,99.90
2022-09-21T03:05:54.333Z,99.90
2022-09-21T03:08:21.498Z,99.90
2022-09-21T03:10:50.882Z,99.90
2022-09-21T03:15:47.300Z,99.90
2022-09-21T03:18:14.256Z,99.90
2022-09-21T03:20:47.900Z,99.90
2022-09-21T03:23:14.985Z,99.90
2022-09-21T03:25:46.114Z,99.90
2022-09-21T03:28:14.915Z,99.90
2022-09-21T03:30:42.087Z,99.90
2022-09-21T03:33:09.719Z,99.90
2022-09-21T03:35:36.500Z,99.90
2022-09-21T03:38:03.405Z,99.90
2022-09-21T03:40:30.351Z,99.90
2022-09-21T03:42:57.269Z,99.90
2022-09-21T03:45:27.259Z,99.90
2022-09-21T03:47:58.431Z,99.90
2022-09-21T03:50:28.458Z,99.90
2022-09-21T03:52:59.470Z,99.90
2022-09-21T03:55:27.523Z,99.90
2022-09-21T03:57:54.507Z,99.90
2022-09-21T04:00:22.120Z,99.90
2022-09-21T04:02:49.175Z,99.90
2022-09-21T04:05:17.681Z,99.90
2022-09-21T04:07:48.171Z,99.90
2022-09-21T04:10:18.537Z,99.90
2022-09-21T04:12:46.846Z,99.90
2022-09-21T04:15:20.008Z,99.90
2022-09-21T04:17:51.116Z,99.90
2022-09-21T04:20:19.356Z,99.90
2022-09-21T04:22:47.707Z,99.90
2022-09-21T04:25:15.866Z,99.90
2022-09-21T04:27:43.252Z,99.90
2022-09-21T04:30:15.784Z,99.90
2022-09-21T04:32:42.934Z,99.90
2022-09-21T04:35:10.534Z,99.90
2022-09-21T04:37:37.404Z,99.90
2022-09-21T04:40:05.691Z,99.90
2022-09-21T04:42:32.861Z,99.90
2022-09-21T04:45:00.179Z,99.90
2022-09-21T04:47:29.139Z,99.90
2022-09-21T04:49:55.901Z,99.90
2022-09-21T04:52:22.790Z,99.90
2022-09-21T04:54:50.105Z,99.90
2022-09-21T04:57:16.949Z,99.90
2022-09-21T04:59:43.751Z,99.90
2022-09-21T05:02:10.526Z,99.90
2022-09-21T05:04:37.591Z,99.90
2022-09-21T05:07:04.509Z,99.90
2022-09-21T05:09:49.743Z,99.90
2022-09-21T05:12:16.548Z,99.90
2022-09-21T05:14:44.981Z,99.90
2022-09-21T05:17:12.829Z,99.90
2022-09-21T05:19:40.198Z,99.90
2022-09-21T05:22:07.190Z,99.90
2022-09-21T05:24:35.263Z,99.90
2022-09-21T05:27:02.337Z,99.90
2022-09-21T05:29:29.391Z,99.90
2022-09-21T05:32:20.680Z,99.90
2022-09-21T05:34:55.918Z,99.90
2022-09-21T05:37:37.669Z,99.90
2022-09-21T05:40:05.827Z,99.90
2022-09-21T05:42:33.455Z,99.90
2022-09-21T05:45:00.857Z,99.90
2022-09-21T05:47:46.070Z,99.90
2022-09-21T05:50:31.358Z,99.90
2022-09-21T05:53:18.027Z,99.90
2022-09-21T05:55:54.405Z,99.90
2022-09-21T05:58:39.084Z,99.90
2022-09-21T06:01:21.422Z,99.90
2022-09-21T06:03:50.165Z,99.90
2022-09-21T06:06:30.213Z,99.90
2022-09-21T06:08:57.076Z,99.90
2022-09-21T06:11:24.002Z,99.90
2022-09-21T06:13:50.742Z,99.90
2022-09-21T06:16:17.503Z,99.90
2022-09-21T06:18:44.679Z,99.90
2022-09-21T06:21:11.870Z,99.90
2022-09-21T06:23:40.291Z,99.90
2022-09-21T06:26:07.167Z,99.90
2022-09-21T06:28:35.503Z,99.90
2022-09-21T06:31:02.496Z,99.90
2022-09-21T06:33:29.573Z,99.90
2022-09-21T06:36:00.938Z,99.90
2022-09-21T06:38:29.326Z,99.90
2022-09-21T06:41:00.902Z,99.90
2022-09-21T06:43:27.928Z,99.90
2022-09-21T06:45:57.809Z,99.90
2022-09-21T06:48:25.549Z,99.90
2022-09-21T06:50:56.870Z,99.90
2022-09-21T06:53:23.609Z,99.90
2022-09-21T06:55:50.345Z,99.90
2022-09-21T06:58:17.219Z,99.90
2022-09-21T07:00:44.105Z,99.90
2022-09-21T07:03:14.331Z,99.90
2022-09-21T07:05:44.343Z,99.90
2022-09-21T07:10:05.133Z,99.90
2022-09-21T07:10:59.329Z,99.90
2022-09-21T07:13:27.199Z,99.90
2022-09-21T07:15:53.913Z,99.90
2022-09-21T07:18:21.734Z,99.90
2022-09-21T07:20:51.885Z,99.90
2022-09-21T07:23:20.903Z,99.90
2022-09-21T07:25:50.112Z,99.90
2022-09-21T07:28:17.321Z,99.90
2022-09-21T07:30:44.216Z,99.90
2022-09-21T07:33:13.295Z,99.90
2022-09-21T07:35:40.010Z,99.90
2022-09-21T07:38:07.851Z,99.90
2022-09-21T07:40:35.984Z,99.90
2022-09-21T07:43:03.700Z,99.90
2022-09-21T07:45:31.304Z,99.90
2022-09-21T07:48:13.418Z,99.90
2022-09-21T07:50:40.756Z,99.90
2022-09-21T07:53:07.732Z,99.90
2022-09-21T07:55:35.659Z,99.90
2022-09-21T07:58:20.999Z,99.90
2022-09-21T08:00:48.018Z,99.90
2022-09-21T08:03:15.026Z,99.90
2022-09-21T08:05:41.851Z,99.90
2022-09-21T08:08:09.111Z,99.90
2022-09-21T08:10:36.405Z,99.90
2022-09-21T08:13:07.982Z,99.90
2022-09-21T08:15:49.345Z,99.90
2022-09-21T08:18:17.081Z,99.90
2022-09-21T08:20:44.341Z,99.90
2022-09-21T08:23:11.915Z,99.90
2022-09-21T08:25:38.764Z,99.90
2022-09-21T08:28:09.627Z,99.90
2022-09-21T08:30:47.462Z,99.90
2022-09-21T08:33:14.691Z,99.90
2022-09-21T08:35:41.398Z,99.90
2022-09-21T08:38:08.434Z,99.90
2022-09-21T08:40:35.969Z,99.90
2022-09-21T08:43:09.514Z,99.90
2022-09-21T08:45:42.247Z,99.90
2022-09-21T08:48:28.288Z,99.90
2022-09-21T08:51:00.792Z,99.90
2022-09-21T08:53:36.509Z,99.90
2022-09-21T08:56:03.514Z,99.90
2022-09-21T08:58:32.482Z,99.90
2022-09-21T09:01:20.527Z,99.90
2022-09-21T09:04:17.061Z,99.90
2022-09-21T09:06:49.431Z,99.90
2022-09-21T09:09:31.281Z,99.90
2022-09-21T09:12:11.657Z,99.90
2022-09-21T09:15:08.085Z,99.90
2022-09-21T09:18:03.242Z,99.90
2022-09-21T09:20:41.834Z,99.90
2022-09-21T09:23:35.098Z,99.90
2022-09-21T09:26:18.338Z,99.90
2022-09-21T09:28:55.634Z,99.90
2022-09-21T09:31:27.779Z,99.90
2022-09-21T09:34:28.829Z,99.90
2022-09-21T09:37:00.376Z,99.90
2022-09-21T09:39:30.877Z,99.90
2022-09-21T09:42:09.486Z,99.90
2022-09-21T09:45:13.996Z,99.90
2022-09-21T09:48:08.471Z,99.90
2022-09-21T09:50:41.844Z,99.90
2022-09-21T09:53:19.077Z,99.90
2022-09-21T09:55:50.490Z,99.90
2022-09-21T09:58:19.279Z,99.90
2022-09-21T10:00:50.818Z,99.90
2022-09-21T10:03:28.490Z,99.90
2022-09-21T10:05:58.146Z,99.90
2022-09-21T10:08:37.311Z,99.90
2022-09-21T10:11:15.057Z,99.90
2022-09-21T10:13:45.439Z,99.90
2022-09-21T10:16:22.285Z,99.90
2022-09-21T10:18:51.317Z,99.90
2022-09-21T10:21:27.090Z,99.90
2022-09-21T10:24:05.677Z,99.90
2022-09-21T10:26:37.409Z,99.90
2022-09-21T10:29:22.727Z,99.90
2022-09-21T10:32:00.600Z,99.90
2022-09-21T10:34:30.789Z,99.90
2022-09-21T10:37:02.872Z,99.90
2022-09-21T10:39:31.675Z,99.90
2022-09-21T10:42:19.765Z,99.90
2022-09-21T10:44:50.916Z,99.90
2022-09-21T10:47:30.085Z,99.90
2022-09-21T10:50:00.695Z,99.90
2022-09-21T10:52:46.019Z,99.90
2022-09-21T10:55:20.797Z,99.90
2022-09-21T10:57:49.230Z,99.90
2022-09-21T11:00:25.883Z,99.90
2022-09-21T11:02:55.086Z,99.90
2022-09-21T11:05:29.584Z,99.90
2022-09-21T11:08:08.525Z,99.90
2022-09-21T11:11:02.743Z,99.90
2022-09-21T11:13:46.184Z,99.90
2022-09-21T11:16:42.734Z,99.90
2022-09-21T11:19:37.612Z,99.90
2022-09-21T11:22:12.483Z,99.90
2022-09-21T11:24:54.820Z,99.90
2022-09-21T11:27:36.088Z,99.90
2022-09-21T11:30:11.510Z,99.90
2022-09-21T11:32:57.100Z,99.90
2022-09-21T11:35:36.156Z,99.90
2022-09-21T11:38:09.149Z,99.90
2022-09-21T11:40:47.601Z,99.90
2022-09-21T11:43:44.630Z,99.90
2022-09-21T11:46:23.791Z,99.90
2022-09-21T11:48:59.985Z,99.90
2022-09-21T11:52:01.064Z,99.90
2022-09-21T11:54:36.981Z,99.90
2022-09-21T11:57:18.957Z,99.90
2022-09-21T12:00:00.394Z,99.90
2022-09-21T12:02:52.383Z,99.90
2022-09-21T12:05:29.363Z,99.90
2022-09-21T12:08:23.841Z,99.90
2022-09-21T12:10:53.881Z,99.90
2022-09-21T12:13:33.546Z,99.90
2022-09-21T12:16:20.451Z,99.90
2022-09-21T12:18:56.470Z,99.90
2022-09-21T12:21:30.359Z,99.90
2022-09-21T12:24:04.100Z,99.90
2022-09-21T12:26:39.085Z,99.90
2022-09-21T12:29:17.496Z,99.90
2022-09-21T12:31:48.443Z,99.90
2022-09-21T12:34:22.828Z,99.90
2022-09-21T12:37:21.079Z,99.90
2022-09-21T12:39:54.512Z,99.90
2022-09-21T12:42:54.181Z,98.50
2022-09-21T12:45:32.400Z,97.40
2022-09-21T12:48:14.352Z,98.30
2022-09-21T12:50:48.595Z,98.20
2022-09-21T12:53:22.992Z,98.10
2022-09-21T12:56:09.993Z,97.80
2022-09-21T12:58:44.079Z,98.00
2022-09-21T13:01:23.201Z,98.00
2022-09-21T13:04:15.609Z,98.10
2022-09-21T13:07:08.784Z,98.20
2022-09-21T13:09:42.337Z,97.90
2022-09-21T13:12:24.962Z,97.80
2022-09-21T13:14:58.009Z,97.10
2022-09-21T13:17:34.322Z,97.20
2022-09-21T13:20:17.571Z,99.20
2022-09-21T13:22:48.138Z,97.60
2022-09-21T13:25:24.866Z,97.60
2022-09-21T13:28:21.672Z,97.60
2022-09-21T13:31:18.514Z,97.10
2022-09-21T13:34:19.412Z,97.60
2022-09-21T13:37:06.221Z,96.80
2022-09-21T13:39:33.218Z,96.90
2022-09-21T13:42:30.012Z,97.10
2022-09-21T13:44:58.384Z,97.10
2022-09-21T13:47:40.122Z,97.00
2022-09-21T13:50:24.911Z,96.90
2022-09-21T13:52:58.786Z,96.40
2022-09-21T13:55:34.943Z,96.70
2022-09-21T13:58:29.247Z,96.20
2022-09-21T14:01:03.287Z,96.20
2022-09-21T14:03:43.085Z,96.80
2022-09-21T14:06:17.352Z,96.90
2022-09-21T14:09:01.455Z,96.80
2022-09-21T14:11:35.740Z,97.00
2022-09-21T14:14:20.406Z,96.80
2022-09-21T14:16:57.814Z,96.60
2022-09-21T14:19:27.342Z,96.10
2022-09-21T14:22:09.655Z,95.90
2022-09-21T14:25:28.884Z,96.00
2022-09-21T14:28:01.036Z,95.20
2022-09-21T14:30:32.207Z,96.00
2022-09-21T14:33:20.502Z,95.70
2022-09-21T14:35:48.926Z,96.00
2022-09-21T14:38:54.984Z,95.90
2022-09-21T14:41:24.379Z,95.70
2022-09-21T14:43:56.584Z,96.10
2022-09-21T14:46:59.913Z,96.50
2022-09-21T14:50:07.038Z,96.50
2022-09-21T14:52:57.265Z,96.30
2022-09-21T14:55:46.266Z,96.60
2022-09-21T14:58:31.422Z,96.50
2022-09-21T15:01:35.428Z,96.30
2022-09-21T15:04:29.642Z,96.00
2022-09-21T15:07:38.195Z,95.80
2022-09-21T15:10:55.288Z,95.90
2022-09-21T15:13:54.592Z,95.90
2022-09-21T15:16:35.615Z,95.70
2022-09-21T15:19:28.631Z,95.30
2022-09-21T15:22:09.445Z,95.10
2022-09-21T15:24:36.274Z,95.10
2022-09-21T15:27:12.840Z,95.30
2022-09-21T15:29:42.478Z,95.20
2022-09-21T15:32:09.295Z,95.50
2022-09-21T15:34:36.124Z,95.60
2022-09-21T15:37:17.407Z,95.50
2022-09-21T15:39:44.420Z,95.40
2022-09-21T15:42:18.478Z,95.70
2022-09-21T15:44:50.776Z,96.30
2022-09-21T15:47:22.431Z,96.40
2022-09-21T15:49:50.953Z,96.40
2022-09-21T15:52:38.110Z,96.30
2022-09-21T15:55:15.980Z,96.20
2022-09-21T15:57:43.701Z,96.70
2022-09-21T16:00:22.309Z,96.70
2022-09-21T16:02:56.123Z,96.60
2022-09-21T16:05:25.640Z,97.00
2022-09-21T16:08:06.366Z,96.70
2022-09-21T16:10:33.401Z,96.80
2022-09-21T16:13:36.437Z,97.30
2022-09-21T16:16:08.705Z,97.50
2022-09-21T16:18:48.419Z,97.30
2022-09-21T16:21:24.835Z,96.80
2022-09-21T16:23:55.500Z,96.80
2022-09-21T16:26:30.205Z,96.60
2022-09-21T16:29:24.037Z,96.60
2022-09-21T16:31:51.580Z,96.80
2022-09-21T16:34:37.472Z,96.80
2022-09-21T16:37:28.784Z,96.70
2022-09-21T16:39:58.033Z,96.70
2022-09-21T16:42:33.395Z,96.90
2022-09-21T16:45:01.081Z,97.20
2022-09-21T16:47:28.814Z,97.60
2022-09-21T16:50:02.615Z,97.90
2022-09-21T16:52:30.499Z,98.50
2022-09-21T16:54:58.780Z,98.90
2022-09-21T16:57:26.712Z,99.30
2022-09-21T16:59:53.613Z,99.20
2022-09-21T17:02:20.981Z,99.60
2022-09-21T17:04:50.561Z,99.70
2022-09-21T17:07:20.092Z,99.90
2022-09-21T17:09:47.932Z,99.90
2022-09-21T17:12:19.815Z,99.90
2022-09-21T17:14:47.565Z,99.90
2022-09-21T17:17:23.581Z,99.90
2022-09-21T17:19:52.707Z,99.90
2022-09-21T17:22:20.064Z,99.90
2022-09-21T17:24:52.397Z,99.90
2022-09-21T17:27:26.722Z,99.90
2022-09-21T17:29:55.322Z,99.90
2022-09-21T17:32:24.564Z,99.90
2022-09-21T17:35:31.385Z,99.90
2022-09-21T17:37:59.025Z,99.90
2022-09-21T17:40:27.515Z,99.90
2022-09-21T17:43:03.427Z,99.90
2022-09-21T17:45:40.576Z,99.90
2022-09-21T17:48:18.299Z,99.90
2022-09-21T17:50:45.417Z,99.90
2022-09-21T17:53:31.376Z,99.90
2022-09-21T17:56:00.317Z,99.90
2022-09-21T17:58:50.518Z,99.90
2022-09-21T18:01:29.178Z,99.90
2022-09-21T18:03:57.305Z,99.90
2022-09-21T18:06:24.538Z,99.90
2022-09-21T18:08:51.714Z,99.90
2022-09-21T18:11:27.308Z,99.90
2022-09-21T18:13:59.505Z,99.90
2022-09-21T18:16:27.779Z,99.90
2022-09-21T18:19:05.628Z,99.90
2022-09-21T18:21:38.217Z,99.90
2022-09-21T18:24:19.091Z,99.90
2022-09-21T18:26:46.748Z,99.90
2022-09-21T18:29:39.981Z,99.90
2022-09-21T18:32:20.069Z,99.90
2022-09-21T18:34:51.206Z,99.90
2022-09-21T18:37:38.885Z,99.90
2022-09-21T18:40:32.162Z,99.90
2022-09-21T18:43:17.281Z,99.90
2022-09-21T18:45:48.166Z,99.90
2022-09-21T18:48:33.918Z,99.90
2022-09-21T18:51:27.506Z,99.90
2022-09-21T18:53:56.513Z,99.90
2022-09-21T18:56:25.478Z,99.90
2022-09-21T18:58:52.639Z,99.90
2022-09-21T19:01:23.560Z,99.90
2022-09-21T19:03:50.893Z,99.90
2022-09-21T19:06:29.688Z,99.90
2022-09-21T19:09:14.993Z,99.90
2022-09-21T19:12:08.257Z,99.90
2022-09-21T19:14:50.601Z,99.90
2022-09-21T19:18:08.954Z,99.90
2022-09-21T19:20:54.773Z,99.90
2022-09-21T19:23:53.415Z,99.90
2022-09-21T19:26:32.577Z,99.90
2022-09-21T19:29:44.431Z,99.90
2022-09-21T19:32:34.478Z,99.90
2022-09-21T19:35:30.947Z,99.90
2022-09-21T19:38:00.156Z,99.90
2022-09-21T19:40:30.291Z,99.90
2022-09-21T19:43:20.082Z,99.90
2022-09-21T19:46:05.728Z,99.90
2022-09-21T19:48:45.913Z,99.90
2022-09-21T19:51:35.682Z,99.90
2022-09-21T19:54:21.757Z,99.90
2022-09-21T19:57:08.898Z,99.90
2022-09-21T19:59:45.137Z,99.90
2022-09-21T20:02:20.837Z,99.90
2022-09-21T20:04:55.863Z,99.90
2022-09-21T20:07:47.074Z,99.90
2022-09-21T20:10:13.902Z,99.90
2022-09-21T20:12:49.925Z,99.90
2022-09-21T20:15:28.722Z,99.90
2022-09-21T20:18:07.932Z,99.90
2022-09-21T20:20:35.030Z,99.90
2022-09-21T20:23:02.107Z,99.90
2022-09-21T20:25:38.804Z,99.90
2022-09-21T20:28:07.049Z,99.90
2022-09-21T20:30:38.503Z,99.90
2022-09-21T20:33:10.836Z,99.90
2022-09-21T20:35:37.830Z,99.90
2022-09-21T20:38:04.737Z,99.90
2022-09-21T20:40:32.128Z,99.90
2022-09-21T20:43:01.116Z,99.90
2022-09-21T20:45:29.054Z,99.90
2022-09-21T20:48:13.145Z,99.90
2022-09-21T20:50:56.641Z,99.90
2022-09-21T20:53:24.829Z,99.90
2022-09-21T20:55:56.661Z,99.90
2022-09-21T20:58:24.873Z,99.90
2022-09-21T21:00:58.067Z,99.90
2022-09-21T21:03:26.049Z,99.90
2022-09-21T21:05:52.947Z,99.90
2022-09-21T21:08:19.871Z,99.90
2022-09-21T21:10:47.030Z,99.90
2022-09-21T21:13:13.952Z,99.90
2022-09-21T21:15:40.858Z,99.90
2022-09-21T21:18:12.411Z,99.90
2022-09-21T21:20:39.705Z,99.90
2022-09-21T21:23:08.332Z,99.90
2022-09-21T21:25:35.506Z,99.90
2022-09-21T21:28:02.949Z,99.90
2022-09-21T21:30:29.876Z,99.90
2022-09-21T21:32:56.992Z,99.90
2022-09-21T21:35:25.122Z,99.90
2022-09-21T21:37:52.149Z,99.90
2022-09-21T21:40:20.736Z,99.90
2022-09-21T21:42:47.594Z,99.90
2022-09-21T21:45:14.463Z,99.90
2022-09-21T21:47:41.707Z,99.90
2022-09-21T21:50:12.072Z,99.90
2022-09-21T21:52:39.348Z,99.90
2022-09-21T21:55:06.819Z,99.90
2022-09-21T21:57:33.732Z,99.90
2022-09-21T22:00:00.711Z,99.90
2022-09-21T22:02:29.814Z,99.90
2022-09-21T22:04:56.777Z,99.90
2022-09-21T22:07:24.235Z,99.90
2022-09-21T22:09:50.980Z,99.90
2022-09-21T22:12:17.883Z,99.90
2022-09-21T22:14:46.509Z,99.90
2022-09-21T22:17:14.668Z,99.90
2022-09-21T22:19:42.479Z,99.90
2022-09-21T22:22:09.483Z,99.90
2022-09-21T22:24:36.328Z,99.90
2022-09-21T22:27:04.367Z,99.90
2022-09-21T22:29:31.225Z,99.90
2022-09-21T22:31:58.391Z,99.90
2022-09-21T22:34:25.425Z,99.90
2022-09-21T22:36:52.291Z,99.90
2022-09-21T22:39:19.211Z,99.90
2022-09-21T22:41:45.990Z,99.90
2022-09-21T22:44:12.907Z,99.90
2022-09-21T22:46:40.313Z,99.90
2022-09-21T22:49:07.862Z,99.90
2022-09-21T22:51:35.619Z,99.90
2022-09-21T22:54:02.836Z,99.90
2022-09-21T22:56:31.734Z,99.90
2022-09-21T22:59:01.641Z,99.90
2022-09-21T23:01:38.526Z,99.90
2022-09-21T23:04:14.224Z,99.90
2022-09-21T23:06:44.239Z,99.90
2022-09-21T23:09:16.894Z,99.90
2022-09-21T23:11:47.650Z,99.90
2022-09-21T23:14:16.613Z,99.90
2022-09-21T23:16:43.923Z,99.90
2022-09-21T23:19:15.893Z,99.90
2022-09-21T23:21:44.834Z,99.90
2022-09-21T23:24:13.021Z,99.90
2022-09-21T23:26:40.197Z,99.90
2022-09-21T23:29:12.811Z,99.90
2022-09-21T23:31:44.526Z,99.90
2022-09-21T23:34:20.994Z,99.90
2022-09-21T23:36:48.096Z,99.90
2022-09-21T23:39:15.896Z,99.90
2022-09-21T23:41:43.924Z,99.90
2022-09-21T23:44:11.482Z,99.90
2022-09-21T23:46:39.584Z,99.90
2022-09-21T23:49:06.975Z,99.90
2022-09-21T23:51:34.798Z,99.90
2022-09-21T23:54:01.960Z,99.90
2022-09-21T23:56:30.351Z,99.90
2022-09-21T23:58:57.616Z,99.90
